sensor_id;sensor_type;location;lat;lon;timestamp;P1;durP1;ratioP1;P2;durP2;ratioP2
33826;SDS011;20128;45.582;5.298;2023-12-07T00:01:04;43.97;;;21.98;;
33826;SDS011;20128;45.582;5.298;2023-12-07T00:03:29;46.40;;;20.98;;
33826;SDS011;20128;45.582;5.298;2023-12-07T00:05:55;38.53;;;20.27;;
33826;SDS011;20128;45.582;5.298;2023-12-07T00:08:21;48.10;;;19.58;;
33826;SDS011;20128;45.582;5.298;2023-12-07T00:10:46;39.60;;;20.85;;
33826;SDS011;20128;45.582;5.298;2023-12-07T00:13:12;45.85;;;20.20;;
33826;SDS011;20128;45.582;5.298;2023-12-07T00:15:38;38.75;;;19.15;;
33826;SDS011;20128;45.582;5.298;2023-12-07T00:18:04;38.45;;;18.63;;
33826;SDS011;20128;45.582;5.298;2023-12-07T00:20:29;35.85;;;17.70;;
33826;SDS011;20128;45.582;5.298;2023-12-07T00:22:55;36.20;;;17.83;;
33826;SDS011;20128;45.582;5.298;2023-12-07T00:25:21;32.10;;;17.15;;
33826;SDS011;20128;45.582;5.298;2023-12-07T00:27:47;38.45;;;17.13;;
33826;SDS011;20128;45.582;5.298;2023-12-07T00:30:13;31.17;;;16.20;;
33826;SDS011;20128;45.582;5.298;2023-12-07T00:32:39;37.67;;;15.75;;
33826;SDS011;20128;45.582;5.298;2023-12-07T00:35:08;37.72;;;17.27;;
33826;SDS011;20128;45.582;5.298;2023-12-07T00:37:34;39.47;;;16.88;;
33826;SDS011;20128;45.582;5.298;2023-12-07T00:40:00;35.63;;;16.38;;
33826;SDS011;20128;45.582;5.298;2023-12-07T00:42:26;33.60;;;17.60;;
33826;SDS011;20128;45.582;5.298;2023-12-07T00:44:52;36.85;;;16.63;;
33826;SDS011;20128;45.582;5.298;2023-12-07T00:47:18;33.53;;;15.55;;
33826;SDS011;20128;45.582;5.298;2023-12-07T00:49:43;30.45;;;15.52;;
33826;SDS011;20128;45.582;5.298;2023-12-07T00:52:09;35.80;;;14.68;;
33826;SDS011;20128;45.582;5.298;2023-12-07T00:54:35;30.83;;;15.23;;
33826;SDS011;20128;45.582;5.298;2023-12-07T00:57:00;37.13;;;15.70;;
33826;SDS011;20128;45.582;5.298;2023-12-07T00:59:26;31.25;;;15.15;;
33826;SDS011;20128;45.582;5.298;2023-12-07T01:01:51;34.05;;;16.27;;
33826;SDS011;20128;45.582;5.298;2023-12-07T01:04:17;33.60;;;15.60;;
33826;SDS011;20128;45.582;5.298;2023-12-07T01:06:43;29.25;;;15.40;;
33826;SDS011;20128;45.582;5.298;2023-12-07T01:09:08;31.98;;;15.18;;
33826;SDS011;20128;45.582;5.298;2023-12-07T01:11:38;30.55;;;14.48;;
33826;SDS011;20128;45.582;5.298;2023-12-07T01:14:05;38.50;;;15.75;;
33826;SDS011;20128;45.582;5.298;2023-12-07T01:16:30;34.45;;;15.98;;
33826;SDS011;20128;45.582;5.298;2023-12-07T01:18:56;31.95;;;16.40;;
33826;SDS011;20128;45.582;5.298;2023-12-07T01:21:23;37.58;;;17.52;;
33826;SDS011;20128;45.582;5.298;2023-12-07T01:23:48;39.72;;;20.67;;
33826;SDS011;20128;45.582;5.298;2023-12-07T01:26:14;47.50;;;22.73;;
33826;SDS011;20128;45.582;5.298;2023-12-07T01:28:39;36.25;;;16.88;;
33826;SDS011;20128;45.582;5.298;2023-12-07T01:31:05;35.00;;;17.00;;
33826;SDS011;20128;45.582;5.298;2023-12-07T01:33:31;35.97;;;17.60;;
33826;SDS011;20128;45.582;5.298;2023-12-07T01:35:56;35.28;;;16.50;;
33826;SDS011;20128;45.582;5.298;2023-12-07T01:38:22;32.40;;;16.90;;
33826;SDS011;20128;45.582;5.298;2023-12-07T01:40:48;32.55;;;16.10;;
33826;SDS011;20128;45.582;5.298;2023-12-07T01:43:13;37.40;;;16.95;;
33826;SDS011;20128;45.582;5.298;2023-12-07T01:45:39;35.92;;;16.02;;
33826;SDS011;20128;45.582;5.298;2023-12-07T01:48:05;36.88;;;15.88;;
33826;SDS011;20128;45.582;5.298;2023-12-07T01:50:31;29.67;;;16.05;;
33826;SDS011;20128;45.582;5.298;2023-12-07T01:53:02;35.33;;;15.85;;
33826;SDS011;20128;45.582;5.298;2023-12-07T01:55:28;33.55;;;15.52;;
33826;SDS011;20128;45.582;5.298;2023-12-07T01:57:56;39.40;;;17.98;;
33826;SDS011;20128;45.582;5.298;2023-12-07T02:00:22;39.42;;;19.08;;
33826;SDS011;20128;45.582;5.298;2023-12-07T02:02:49;39.17;;;17.00;;
33826;SDS011;20128;45.582;5.298;2023-12-07T02:05:15;41.90;;;19.30;;
33826;SDS011;20128;45.582;5.298;2023-12-07T02:07:41;37.15;;;16.33;;
33826;SDS011;20128;45.582;5.298;2023-12-07T02:10:07;29.10;;;15.75;;
33826;SDS011;20128;45.582;5.298;2023-12-07T02:12:33;25.45;;;13.90;;
33826;SDS011;20128;45.582;5.298;2023-12-07T02:15:01;23.95;;;12.82;;
33826;SDS011;20128;45.582;5.298;2023-12-07T02:23:03;25.77;;;13.77;;
33826;SDS011;20128;45.582;5.298;2023-12-07T02:25:35;32.17;;;16.25;;
33826;SDS011;20128;45.582;5.298;2023-12-07T02:28:05;28.52;;;14.27;;
33826;SDS011;20128;45.582;5.298;2023-12-07T02:30:31;24.63;;;13.10;;
33826;SDS011;20128;45.582;5.298;2023-12-07T02:32:57;28.98;;;15.50;;
33826;SDS011;20128;45.582;5.298;2023-12-07T02:35:23;23.30;;;14.00;;
33826;SDS011;20128;45.582;5.298;2023-12-07T02:37:50;24.48;;;14.15;;
33826;SDS011;20128;45.582;5.298;2023-12-07T02:40:18;25.65;;;13.80;;
33826;SDS011;20128;45.582;5.298;2023-12-07T02:42:47;25.38;;;12.77;;
33826;SDS011;20128;45.582;5.298;2023-12-07T02:45:13;24.10;;;13.18;;
33826;SDS011;20128;45.582;5.298;2023-12-07T02:47:40;28.05;;;14.63;;
33826;SDS011;20128;45.582;5.298;2023-12-07T02:50:06;27.55;;;14.52;;
33826;SDS011;20128;45.582;5.298;2023-12-07T02:52:33;22.58;;;13.73;;
33826;SDS011;20128;45.582;5.298;2023-12-07T02:54:59;28.27;;;15.10;;
33826;SDS011;20128;45.582;5.298;2023-12-07T02:57:25;27.75;;;14.40;;
33826;SDS011;20128;45.582;5.298;2023-12-07T02:59:50;24.80;;;13.48;;
33826;SDS011;20128;45.582;5.298;2023-12-07T03:02:16;23.70;;;14.30;;
33826;SDS011;20128;45.582;5.298;2023-12-07T03:04:41;28.58;;;15.25;;
33826;SDS011;20128;45.582;5.298;2023-12-07T03:07:07;27.05;;;14.80;;
33826;SDS011;20128;45.582;5.298;2023-12-07T03:09:33;27.80;;;14.93;;
33826;SDS011;20128;45.582;5.298;2023-12-07T03:11:58;26.92;;;14.20;;
33826;SDS011;20128;45.582;5.298;2023-12-07T03:14:24;23.45;;;12.73;;
33826;SDS011;20128;45.582;5.298;2023-12-07T03:16:49;26.17;;;12.88;;
33826;SDS011;20128;45.582;5.298;2023-12-07T03:19:15;28.77;;;13.77;;
33826;SDS011;20128;45.582;5.298;2023-12-07T03:21:41;29.27;;;14.25;;
33826;SDS011;20128;45.582;5.298;2023-12-07T03:24:08;25.00;;;12.77;;
33826;SDS011;20128;45.582;5.298;2023-12-07T03:26:34;30.70;;;13.07;;
33826;SDS011;20128;45.582;5.298;2023-12-07T03:29:00;25.35;;;12.32;;
33826;SDS011;20128;45.582;5.298;2023-12-07T03:31:26;23.52;;;11.18;;
33826;SDS011;20128;45.582;5.298;2023-12-07T03:33:52;23.25;;;11.60;;
33826;SDS011;20128;45.582;5.298;2023-12-07T03:36:18;20.42;;;11.02;;
33826;SDS011;20128;45.582;5.298;2023-12-07T03:38:44;25.33;;;12.15;;
33826;SDS011;20128;45.582;5.298;2023-12-07T03:41:09;19.58;;;10.95;;
33826;SDS011;20128;45.582;5.298;2023-12-07T03:43:35;21.15;;;11.07;;
33826;SDS011;20128;45.582;5.298;2023-12-07T03:46:03;26.45;;;12.43;;
33826;SDS011;20128;45.582;5.298;2023-12-07T03:48:30;22.23;;;11.85;;
33826;SDS011;20128;45.582;5.298;2023-12-07T03:50:55;21.05;;;11.13;;
33826;SDS011;20128;45.582;5.298;2023-12-07T03:53:21;19.38;;;11.68;;
33826;SDS011;20128;45.582;5.298;2023-12-07T03:55:47;21.83;;;11.57;;
33826;SDS011;20128;45.582;5.298;2023-12-07T03:58:12;20.73;;;11.40;;
33826;SDS011;20128;45.582;5.298;2023-12-07T04:00:38;22.17;;;11.95;;
33826;SDS011;20128;45.582;5.298;2023-12-07T04:03:04;20.10;;;10.80;;
33826;SDS011;20128;45.582;5.298;2023-12-07T04:05:30;21.77;;;12.32;;
33826;SDS011;20128;45.582;5.298;2023-12-07T04:07:56;20.83;;;11.27;;
33826;SDS011;20128;45.582;5.298;2023-12-07T04:10:21;25.98;;;11.38;;
33826;SDS011;20128;45.582;5.298;2023-12-07T04:12:47;23.40;;;11.48;;
33826;SDS011;20128;45.582;5.298;2023-12-07T04:15:13;22.63;;;12.30;;
33826;SDS011;20128;45.582;5.298;2023-12-07T04:17:38;26.88;;;12.05;;
33826;SDS011;20128;45.582;5.298;2023-12-07T04:20:04;20.10;;;11.38;;
33826;SDS011;20128;45.582;5.298;2023-12-07T04:22:30;22.00;;;11.30;;
33826;SDS011;20128;45.582;5.298;2023-12-07T04:24:56;25.02;;;11.93;;
33826;SDS011;20128;45.582;5.298;2023-12-07T04:27:22;26.73;;;12.45;;
33826;SDS011;20128;45.582;5.298;2023-12-07T04:29:47;26.90;;;12.38;;
33826;SDS011;20128;45.582;5.298;2023-12-07T04:32:13;23.60;;;11.50;;
33826;SDS011;20128;45.582;5.298;2023-12-07T04:34:38;24.25;;;12.73;;
33826;SDS011;20128;45.582;5.298;2023-12-07T04:37:04;28.92;;;13.65;;
33826;SDS011;20128;45.582;5.298;2023-12-07T04:39:30;23.60;;;13.02;;
33826;SDS011;20128;45.582;5.298;2023-12-07T04:41:56;23.80;;;12.93;;
33826;SDS011;20128;45.582;5.298;2023-12-07T04:44:21;30.35;;;12.50;;
33826;SDS011;20128;45.582;5.298;2023-12-07T04:46:47;25.60;;;11.85;;
33826;SDS011;20128;45.582;5.298;2023-12-07T04:49:12;24.88;;;12.10;;
33826;SDS011;20128;45.582;5.298;2023-12-07T04:51:38;23.15;;;11.98;;
33826;SDS011;20128;45.582;5.298;2023-12-07T04:54:04;25.02;;;13.60;;
33826;SDS011;20128;45.582;5.298;2023-12-07T04:56:29;23.83;;;12.73;;
33826;SDS011;20128;45.582;5.298;2023-12-07T04:58:55;26.58;;;14.32;;
33826;SDS011;20128;45.582;5.298;2023-12-07T05:01:20;31.05;;;14.50;;
33826;SDS011;20128;45.582;5.298;2023-12-07T05:03:46;27.70;;;14.40;;
33826;SDS011;20128;45.582;5.298;2023-12-07T05:06:12;28.38;;;13.43;;
33826;SDS011;20128;45.582;5.298;2023-12-07T05:08:39;27.98;;;14.70;;
33826;SDS011;20128;45.582;5.298;2023-12-07T05:11:04;28.77;;;14.90;;
33826;SDS011;20128;45.582;5.298;2023-12-07T05:13:31;32.92;;;16.27;;
33826;SDS011;20128;45.582;5.298;2023-12-07T05:15:58;29.60;;;15.00;;
33826;SDS011;20128;45.582;5.298;2023-12-07T05:18:25;30.33;;;15.25;;
33826;SDS011;20128;45.582;5.298;2023-12-07T05:20:51;30.08;;;14.48;;
33826;SDS011;20128;45.582;5.298;2023-12-07T05:23:16;28.27;;;14.32;;
33826;SDS011;20128;45.582;5.298;2023-12-07T05:25:42;26.52;;;14.43;;
33826;SDS011;20128;45.582;5.298;2023-12-07T05:28:08;28.85;;;14.27;;
33826;SDS011;20128;45.582;5.298;2023-12-07T05:30:35;29.27;;;14.60;;
33826;SDS011;20128;45.582;5.298;2023-12-07T05:33:01;28.17;;;14.75;;
33826;SDS011;20128;45.582;5.298;2023-12-07T05:35:27;31.35;;;15.40;;
33826;SDS011;20128;45.582;5.298;2023-12-07T05:37:52;28.17;;;14.38;;
33826;SDS011;20128;45.582;5.298;2023-12-07T05:40:18;25.40;;;12.98;;
33826;SDS011;20128;45.582;5.298;2023-12-07T05:42:43;30.83;;;15.07;;
33826;SDS011;20128;45.582;5.298;2023-12-07T05:45:09;27.38;;;13.63;;
33826;SDS011;20128;45.582;5.298;2023-12-07T05:47:35;31.33;;;14.73;;
33826;SDS011;20128;45.582;5.298;2023-12-07T05:50:01;32.53;;;14.25;;
33826;SDS011;20128;45.582;5.298;2023-12-07T05:52:28;31.90;;;14.73;;
33826;SDS011;20128;45.582;5.298;2023-12-07T05:54:54;32.20;;;14.63;;
33826;SDS011;20128;45.582;5.298;2023-12-07T05:57:19;30.45;;;14.00;;
33826;SDS011;20128;45.582;5.298;2023-12-07T05:59:45;31.45;;;14.88;;
33826;SDS011;20128;45.582;5.298;2023-12-07T06:02:11;30.15;;;15.20;;
33826;SDS011;20128;45.582;5.298;2023-12-07T06:04:36;32.28;;;14.52;;
33826;SDS011;20128;45.582;5.298;2023-12-07T06:07:03;31.70;;;14.38;;
33826;SDS011;20128;45.582;5.298;2023-12-07T06:09:28;33.00;;;14.38;;
33826;SDS011;20128;45.582;5.298;2023-12-07T06:11:54;34.47;;;14.57;;
33826;SDS011;20128;45.582;5.298;2023-12-07T06:14:20;31.20;;;14.80;;
33826;SDS011;20128;45.582;5.298;2023-12-07T06:16:47;34.83;;;15.45;;
33826;SDS011;20128;45.582;5.298;2023-12-07T06:19:13;32.58;;;14.40;;
33826;SDS011;20128;45.582;5.298;2023-12-07T06:21:39;30.35;;;15.35;;
33826;SDS011;20128;45.582;5.298;2023-12-07T06:24:05;32.13;;;14.98;;
33826;SDS011;20128;45.582;5.298;2023-12-07T06:26:30;28.50;;;14.18;;
33826;SDS011;20128;45.582;5.298;2023-12-07T06:28:56;33.40;;;17.35;;
33826;SDS011;20128;45.582;5.298;2023-12-07T06:31:21;32.08;;;17.13;;
33826;SDS011;20128;45.582;5.298;2023-12-07T06:33:47;32.13;;;16.00;;
33826;SDS011;20128;45.582;5.298;2023-12-07T06:36:23;31.05;;;15.93;;
33826;SDS011;20128;45.582;5.298;2023-12-07T06:38:49;33.22;;;16.58;;
33826;SDS011;20128;45.582;5.298;2023-12-07T06:41:15;33.38;;;15.13;;
33826;SDS011;20128;45.582;5.298;2023-12-07T06:43:43;34.28;;;16.33;;
33826;SDS011;20128;45.582;5.298;2023-12-07T06:46:12;34.85;;;14.88;;
33826;SDS011;20128;45.582;5.298;2023-12-07T06:48:38;33.78;;;16.63;;
33826;SDS011;20128;45.582;5.298;2023-12-07T06:51:04;40.85;;;15.82;;
33826;SDS011;20128;45.582;5.298;2023-12-07T06:53:30;35.90;;;16.58;;
33826;SDS011;20128;45.582;5.298;2023-12-07T06:55:56;33.30;;;15.80;;
33826;SDS011;20128;45.582;5.298;2023-12-07T06:58:22;31.75;;;14.32;;
33826;SDS011;20128;45.582;5.298;2023-12-07T07:00:48;32.67;;;15.25;;
33826;SDS011;20128;45.582;5.298;2023-12-07T07:03:14;33.55;;;15.65;;
33826;SDS011;20128;45.582;5.298;2023-12-07T07:05:40;31.13;;;14.75;;
33826;SDS011;20128;45.582;5.298;2023-12-07T07:08:06;33.03;;;15.18;;
33826;SDS011;20128;45.582;5.298;2023-12-07T07:10:33;33.55;;;14.40;;
33826;SDS011;20128;45.582;5.298;2023-12-07T07:13:01;32.97;;;14.75;;
33826;SDS011;20128;45.582;5.298;2023-12-07T07:15:31;37.15;;;15.93;;
33826;SDS011;20128;45.582;5.298;2023-12-07T07:17:57;30.33;;;15.45;;
33826;SDS011;20128;45.582;5.298;2023-12-07T07:20:23;39.53;;;16.75;;
33826;SDS011;20128;45.582;5.298;2023-12-07T07:22:49;34.22;;;15.10;;
33826;SDS011;20128;45.582;5.298;2023-12-07T07:25:15;35.97;;;16.02;;
33826;SDS011;20128;45.582;5.298;2023-12-07T07:27:41;32.63;;;15.32;;
33826;SDS011;20128;45.582;5.298;2023-12-07T07:30:07;35.83;;;15.02;;
33826;SDS011;20128;45.582;5.298;2023-12-07T07:32:33;31.00;;;15.25;;
33826;SDS011;20128;45.582;5.298;2023-12-07T07:34:59;32.50;;;14.80;;
33826;SDS011;20128;45.582;5.298;2023-12-07T07:37:25;35.67;;;15.60;;
33826;SDS011;20128;45.582;5.298;2023-12-07T07:39:51;35.47;;;15.13;;
33826;SDS011;20128;45.582;5.298;2023-12-07T07:42:17;33.13;;;14.52;;
33826;SDS011;20128;45.582;5.298;2023-12-07T07:44:42;31.27;;;15.57;;
33826;SDS011;20128;45.582;5.298;2023-12-07T07:47:08;27.27;;;13.80;;
33826;SDS011;20128;45.582;5.298;2023-12-07T07:49:33;32.30;;;15.52;;
33826;SDS011;20128;45.582;5.298;2023-12-07T07:51:59;35.20;;;16.13;;
33826;SDS011;20128;45.582;5.298;2023-12-07T07:54:25;36.28;;;16.52;;
33826;SDS011;20128;45.582;5.298;2023-12-07T07:56:51;35.85;;;14.20;;
33826;SDS011;20128;45.582;5.298;2023-12-07T07:59:17;35.80;;;15.65;;
33826;SDS011;20128;45.582;5.298;2023-12-07T08:01:42;31.52;;;14.35;;
33826;SDS011;20128;45.582;5.298;2023-12-07T08:04:09;40.83;;;16.02;;
33826;SDS011;20128;45.582;5.298;2023-12-07T08:06:35;37.22;;;15.60;;
33826;SDS011;20128;45.582;5.298;2023-12-07T08:09:00;36.05;;;16.00;;
33826;SDS011;20128;45.582;5.298;2023-12-07T08:11:26;34.58;;;15.07;;
33826;SDS011;20128;45.582;5.298;2023-12-07T08:13:52;37.55;;;15.18;;
33826;SDS011;20128;45.582;5.298;2023-12-07T08:16:18;41.25;;;15.35;;
33826;SDS011;20128;45.582;5.298;2023-12-07T08:18:44;31.15;;;15.43;;
33826;SDS011;20128;45.582;5.298;2023-12-07T08:21:18;35.28;;;16.35;;
33826;SDS011;20128;45.582;5.298;2023-12-07T08:23:45;40.72;;;15.10;;
33826;SDS011;20128;45.582;5.298;2023-12-07T08:26:10;33.35;;;15.20;;
33826;SDS011;20128;45.582;5.298;2023-12-07T08:28:36;29.75;;;13.77;;
33826;SDS011;20128;45.582;5.298;2023-12-07T08:31:01;34.15;;;14.18;;
33826;SDS011;20128;45.582;5.298;2023-12-07T08:33:27;44.33;;;14.35;;
33826;SDS011;20128;45.582;5.298;2023-12-07T08:35:53;28.25;;;13.35;;
33826;SDS011;20128;45.582;5.298;2023-12-07T08:38:20;35.95;;;13.55;;
33826;SDS011;20128;45.582;5.298;2023-12-07T08:40:47;28.92;;;13.48;;
33826;SDS011;20128;45.582;5.298;2023-12-07T08:43:12;28.33;;;13.65;;
33826;SDS011;20128;45.582;5.298;2023-12-07T08:45:39;28.70;;;13.48;;
33826;SDS011;20128;45.582;5.298;2023-12-07T08:48:04;27.60;;;12.00;;
33826;SDS011;20128;45.582;5.298;2023-12-07T08:50:30;24.67;;;12.38;;
33826;SDS011;20128;45.582;5.298;2023-12-07T08:52:56;25.40;;;13.18;;
33826;SDS011;20128;45.582;5.298;2023-12-07T08:55:21;23.83;;;11.90;;
33826;SDS011;20128;45.582;5.298;2023-12-07T08:57:47;22.20;;;11.95;;
33826;SDS011;20128;45.582;5.298;2023-12-07T09:00:12;24.98;;;11.68;;
33826;SDS011;20128;45.582;5.298;2023-12-07T09:02:39;31.88;;;13.35;;
33826;SDS011;20128;45.582;5.298;2023-12-07T09:05:04;23.35;;;11.77;;
33826;SDS011;20128;45.582;5.298;2023-12-07T09:07:30;25.83;;;13.43;;
33826;SDS011;20128;45.582;5.298;2023-12-07T09:09:56;21.08;;;10.48;;
33826;SDS011;20128;45.582;5.298;2023-12-07T09:12:22;25.45;;;12.80;;
33826;SDS011;20128;45.582;5.298;2023-12-07T09:14:47;23.20;;;11.95;;
33826;SDS011;20128;45.582;5.298;2023-12-07T09:17:13;25.23;;;12.13;;
33826;SDS011;20128;45.582;5.298;2023-12-07T09:19:38;22.88;;;11.05;;
33826;SDS011;20128;45.582;5.298;2023-12-07T09:22:04;18.13;;;9.98;;
33826;SDS011;20128;45.582;5.298;2023-12-07T09:24:29;20.42;;;9.90;;
33826;SDS011;20128;45.582;5.298;2023-12-07T09:26:55;24.33;;;9.93;;
33826;SDS011;20128;45.582;5.298;2023-12-07T09:29:21;18.90;;;9.95;;
33826;SDS011;20128;45.582;5.298;2023-12-07T09:31:46;18.42;;;9.43;;
33826;SDS011;20128;45.582;5.298;2023-12-07T09:34:12;16.40;;;9.63;;
33826;SDS011;20128;45.582;5.298;2023-12-07T09:36:42;17.63;;;9.75;;
33826;SDS011;20128;45.582;5.298;2023-12-07T09:39:08;20.02;;;10.63;;
33826;SDS011;20128;45.582;5.298;2023-12-07T09:41:35;21.55;;;10.40;;
33826;SDS011;20128;45.582;5.298;2023-12-07T09:44:01;18.52;;;10.75;;
33826;SDS011;20128;45.582;5.298;2023-12-07T09:46:28;21.50;;;10.25;;
33826;SDS011;20128;45.582;5.298;2023-12-07T09:48:54;16.50;;;9.55;;
33826;SDS011;20128;45.582;5.298;2023-12-07T09:51:20;17.27;;;7.30;;
33826;SDS011;20128;45.582;5.298;2023-12-07T09:53:48;21.50;;;9.80;;
33826;SDS011;20128;45.582;5.298;2023-12-07T09:56:16;19.65;;;9.65;;
33826;SDS011;20128;45.582;5.298;2023-12-07T09:58:42;17.20;;;9.25;;
33826;SDS011;20128;45.582;5.298;2023-12-07T10:01:07;23.83;;;10.27;;
33826;SDS011;20128;45.582;5.298;2023-12-07T10:03:34;21.30;;;9.32;;
33826;SDS011;20128;45.582;5.298;2023-12-07T10:05:59;16.27;;;8.25;;
33826;SDS011;20128;45.582;5.298;2023-12-07T10:08:29;16.27;;;8.35;;
33826;SDS011;20128;45.582;5.298;2023-12-07T10:11:28;16.75;;;7.82;;
33826;SDS011;20128;45.582;5.298;2023-12-07T10:13:46;12.88;;;7.22;;
33826;SDS011;20128;45.582;5.298;2023-12-07T10:16:13;12.05;;;6.93;;
33826;SDS011;20128;45.582;5.298;2023-12-07T10:18:41;13.45;;;6.88;;
33826;SDS011;20128;45.582;5.298;2023-12-07T10:21:07;13.55;;;6.80;;
33826;SDS011;20128;45.582;5.298;2023-12-07T10:23:35;16.95;;;6.28;;
33826;SDS011;20128;45.582;5.298;2023-12-07T10:26:07;10.38;;;6.10;;
33826;SDS011;20128;45.582;5.298;2023-12-07T10:28:34;10.95;;;5.65;;
33826;SDS011;20128;45.582;5.298;2023-12-07T10:31:01;11.02;;;5.13;;
33826;SDS011;20128;45.582;5.298;2023-12-07T10:33:26;11.95;;;3.35;;
33826;SDS011;20128;45.582;5.298;2023-12-07T10:35:52;5.88;;;3.25;;
33826;SDS011;20128;45.582;5.298;2023-12-07T10:38:17;9.10;;;3.75;;
33826;SDS011;20128;45.582;5.298;2023-12-07T10:40:45;5.65;;;2.80;;
33826;SDS011;20128;45.582;5.298;2023-12-07T10:43:12;7.30;;;2.83;;
33826;SDS011;20128;45.582;5.298;2023-12-07T10:45:40;6.35;;;2.67;;
33826;SDS011;20128;45.582;5.298;2023-12-07T10:48:08;7.28;;;2.63;;
33826;SDS011;20128;45.582;5.298;2023-12-07T10:50:35;10.60;;;2.80;;
33826;SDS011;20128;45.582;5.298;2023-12-07T10:53:10;6.25;;;2.72;;
33826;SDS011;20128;45.582;5.298;2023-12-07T10:55:55;5.97;;;2.75;;
33826;SDS011;20128;45.582;5.298;2023-12-07T10:58:23;6.10;;;2.58;;
33826;SDS011;20128;45.582;5.298;2023-12-07T11:00:53;5.97;;;2.80;;
33826;SDS011;20128;45.582;5.298;2023-12-07T11:03:19;9.00;;;2.90;;
33826;SDS011;20128;45.582;5.298;2023-12-07T11:05:47;8.30;;;2.63;;
33826;SDS011;20128;45.582;5.298;2023-12-07T11:11:29;4.47;;;2.30;;
33826;SDS011;20128;45.582;5.298;2023-12-07T11:14:08;6.00;;;2.65;;
33826;SDS011;20128;45.582;5.298;2023-12-07T11:16:38;6.55;;;2.55;;
33826;SDS011;20128;45.582;5.298;2023-12-07T11:19:23;6.32;;;2.40;;
33826;SDS011;20128;45.582;5.298;2023-12-07T11:22:00;6.03;;;2.58;;
33826;SDS011;20128;45.582;5.298;2023-12-07T11:24:31;5.78;;;2.90;;
33826;SDS011;20128;45.582;5.298;2023-12-07T11:26:56;5.80;;;3.30;;
33826;SDS011;20128;45.582;5.298;2023-12-07T11:29:27;6.57;;;2.85;;
33826;SDS011;20128;45.582;5.298;2023-12-07T11:32:01;5.90;;;2.95;;
33826;SDS011;20128;45.582;5.298;2023-12-07T11:37:04;4.07;;;2.13;;
33826;SDS011;20128;45.582;5.298;2023-12-07T11:39:39;5.15;;;2.47;;
33826;SDS011;20128;45.582;5.298;2023-12-07T11:42:14;4.75;;;2.00;;
33826;SDS011;20128;45.582;5.298;2023-12-07T11:44:41;5.25;;;2.40;;
33826;SDS011;20128;45.582;5.298;2023-12-07T11:47:09;5.43;;;1.95;;
33826;SDS011;20128;45.582;5.298;2023-12-07T11:49:41;4.85;;;2.05;;
33826;SDS011;20128;45.582;5.298;2023-12-07T11:54:40;8.73;;;2.40;;
33826;SDS011;20128;45.582;5.298;2023-12-07T11:57:07;5.50;;;2.42;;
33826;SDS011;20128;45.582;5.298;2023-12-07T11:59:32;5.63;;;2.47;;
33826;SDS011;20128;45.582;5.298;2023-12-07T12:01:59;4.65;;;2.38;;
33826;SDS011;20128;45.582;5.298;2023-12-07T12:04:27;4.70;;;2.55;;
33826;SDS011;20128;45.582;5.298;2023-12-07T12:06:53;6.53;;;2.38;;
33826;SDS011;20128;45.582;5.298;2023-12-07T12:09:19;5.13;;;2.30;;
33826;SDS011;20128;45.582;5.298;2023-12-07T12:11:45;5.18;;;2.20;;
33826;SDS011;20128;45.582;5.298;2023-12-07T12:14:13;3.45;;;1.90;;
33826;SDS011;20128;45.582;5.298;2023-12-07T12:16:39;7.88;;;2.72;;
33826;SDS011;20128;45.582;5.298;2023-12-07T12:19:05;5.03;;;2.50;;
33826;SDS011;20128;45.582;5.298;2023-12-07T12:21:34;8.95;;;2.40;;
33826;SDS011;20128;45.582;5.298;2023-12-07T12:24:06;7.45;;;2.40;;
33826;SDS011;20128;45.582;5.298;2023-12-07T12:26:33;3.63;;;2.10;;
33826;SDS011;20128;45.582;5.298;2023-12-07T12:29:00;5.38;;;3.03;;
33826;SDS011;20128;45.582;5.298;2023-12-07T12:31:27;12.93;;;3.28;;
33826;SDS011;20128;45.582;5.298;2023-12-07T12:33:53;6.10;;;2.85;;
33826;SDS011;20128;45.582;5.298;2023-12-07T12:36:19;12.82;;;4.32;;
33826;SDS011;20128;45.582;5.298;2023-12-07T12:38:51;8.55;;;4.10;;
33826;SDS011;20128;45.582;5.298;2023-12-07T12:41:20;5.88;;;2.83;;
33826;SDS011;20128;45.582;5.298;2023-12-07T12:43:49;7.70;;;2.58;;
33826;SDS011;20128;45.582;5.298;2023-12-07T12:46:16;7.15;;;2.97;;
33826;SDS011;20128;45.582;5.298;2023-12-07T12:49:00;5.47;;;2.90;;
33826;SDS011;20128;45.582;5.298;2023-12-07T12:51:27;9.90;;;3.00;;
33826;SDS011;20128;45.582;5.298;2023-12-07T12:53:55;5.35;;;2.38;;
33826;SDS011;20128;45.582;5.298;2023-12-07T12:56:21;10.05;;;3.28;;
33826;SDS011;20128;45.582;5.298;2023-12-07T12:58:49;6.53;;;3.03;;
33826;SDS011;20128;45.582;5.298;2023-12-07T13:01:16;10.23;;;3.67;;
33826;SDS011;20128;45.582;5.298;2023-12-07T13:03:43;10.95;;;3.40;;
33826;SDS011;20128;45.582;5.298;2023-12-07T13:06:11;4.20;;;2.35;;
33826;SDS011;20128;45.582;5.298;2023-12-07T13:08:37;6.50;;;3.00;;
33826;SDS011;20128;45.582;5.298;2023-12-07T13:11:02;7.30;;;2.83;;
33826;SDS011;20128;45.582;5.298;2023-12-07T13:13:28;6.25;;;2.70;;
33826;SDS011;20128;45.582;5.298;2023-12-07T13:15:54;6.80;;;2.90;;
33826;SDS011;20128;45.582;5.298;2023-12-07T13:18:20;8.32;;;3.58;;
33826;SDS011;20128;45.582;5.298;2023-12-07T13:20:46;14.55;;;4.65;;
33826;SDS011;20128;45.582;5.298;2023-12-07T13:23:11;7.78;;;3.55;;
33826;SDS011;20128;45.582;5.298;2023-12-07T13:25:37;5.10;;;2.83;;
33826;SDS011;20128;45.582;5.298;2023-12-07T13:28:02;8.43;;;3.35;;
33826;SDS011;20128;45.582;5.298;2023-12-07T13:30:29;17.48;;;3.40;;
33826;SDS011;20128;45.582;5.298;2023-12-07T13:32:58;6.57;;;2.40;;
33826;SDS011;20128;45.582;5.298;2023-12-07T13:35:24;7.93;;;2.38;;
33826;SDS011;20128;45.582;5.298;2023-12-07T13:37:50;7.93;;;2.97;;
33826;SDS011;20128;45.582;5.298;2023-12-07T13:40:15;8.85;;;3.03;;
33826;SDS011;20128;45.582;5.298;2023-12-07T13:42:41;7.88;;;3.55;;
33826;SDS011;20128;45.582;5.298;2023-12-07T13:45:07;9.68;;;3.10;;
33826;SDS011;20128;45.582;5.298;2023-12-07T13:47:33;6.97;;;2.63;;
33826;SDS011;20128;45.582;5.298;2023-12-07T13:50:02;10.85;;;3.17;;
33826;SDS011;20128;45.582;5.298;2023-12-07T13:52:28;7.60;;;3.50;;
33826;SDS011;20128;45.582;5.298;2023-12-07T13:54:56;6.32;;;2.95;;
33826;SDS011;20128;45.582;5.298;2023-12-07T13:57:23;9.05;;;3.08;;
33826;SDS011;20128;45.582;5.298;2023-12-07T13:59:52;6.15;;;2.95;;
33826;SDS011;20128;45.582;5.298;2023-12-07T14:02:18;5.68;;;3.08;;
33826;SDS011;20128;45.582;5.298;2023-12-07T14:04:45;6.20;;;3.28;;
33826;SDS011;20128;45.582;5.298;2023-12-07T14:07:14;8.75;;;3.38;;
33826;SDS011;20128;45.582;5.298;2023-12-07T14:09:42;9.30;;;3.13;;
33826;SDS011;20128;45.582;5.298;2023-12-07T14:12:09;13.40;;;3.42;;
33826;SDS011;20128;45.582;5.298;2023-12-07T14:14:46;9.18;;;3.53;;
33826;SDS011;20128;45.582;5.298;2023-12-07T14:17:12;8.00;;;3.17;;
33826;SDS011;20128;45.582;5.298;2023-12-07T14:19:39;8.15;;;3.55;;
33826;SDS011;20128;45.582;5.298;2023-12-07T14:22:05;6.32;;;3.00;;
33826;SDS011;20128;45.582;5.298;2023-12-07T14:24:33;7.15;;;3.05;;
33826;SDS011;20128;45.582;5.298;2023-12-07T14:27:01;12.63;;;2.80;;
33826;SDS011;20128;45.582;5.298;2023-12-07T14:29:28;5.45;;;2.47;;
33826;SDS011;20128;45.582;5.298;2023-12-07T14:31:54;8.35;;;3.28;;
33826;SDS011;20128;45.582;5.298;2023-12-07T14:34:21;7.10;;;2.97;;
33826;SDS011;20128;45.582;5.298;2023-12-07T14:36:46;8.88;;;3.40;;
33826;SDS011;20128;45.582;5.298;2023-12-07T14:39:12;13.70;;;3.65;;